Ana Sayfa
METAR-TAF:

METAR-TAF

Havaalanları :

Pohnpei, Mikronezya

Enlem: 06-59N, Boylam: 158-12E, yükseklik: 2 m

Güncel hava durumu gözlemi

Rapor saat 00:50 UTC de 44 dakika önce yapıldı.
Rüzgar doğu/kuzeydoğudan 10 kt
Sıcaklık 30°C
Nem 79%
Basınç 1012 hPa
Görüş mesafesi: 24.1 km
1800 ft yükseklikte parçalı bulutlu
13000 ft yükseklikte parçalı çok bulutlu
30000 ft yükseklikte çok bulutlu

METAR: PTPN 200050Z 07010KT 15SM SCT018 BKN130 OVC300 30/26 A2987

Saat: 12:34 (01:34 UTC)

Tahmin

Rapor saat 23:20 UTC de 2 saat ve 14 dakika önce yapıldı.
Ayın 20'si saat 00 UTC'den ayın 20'si saat 24 UTC'ye kadar geçerli Tahmin
Rüzgar doğudan 7 kt
Görüş mesafesi: 10 km
1800 ft yükseklikte parçalı bulutlu
13000 ft yükseklikte parçalı çok bulutlu
Civarda sağanaklar

TAF: PTPN 192320Z 2000/2024 10007KT P6SM VCSH SCT018 BKN130

4.000'den fazla havaalanı için hava durumu gözlemleri ve tahminleri (METAR ve TAF raporları).

Kullanılabilir istasyonlar harita üzerinde sarı ve kırmızı noktalarla gösterilir.

İstasyonun adını görmek için fareyi noktanın üzerinde gezdirin.

Sonrasında hava gözlem ve tahminlerini görmek için tıklayın.

Haritayı değiştirmek için: yaklaştırmak için siyah artı işaretli yeşil düğmeye ve uzaklaştırmak için de eksi işaretli düğmeye hızla tıklayın; bitişik haritalar için yeşil okları kullanın.


METAR-TAF: